createdAt,value
2019-06-01T00:01:29.480Z,96.60
2019-06-01T00:06:32.822Z,96.60
2019-06-01T00:11:34.554Z,96.70
2019-06-01T00:16:37.332Z,96.80
2019-06-01T00:21:38.616Z,97.00
2019-06-01T00:26:43.625Z,97.20
2019-06-01T00:31:45.336Z,97.30
2019-06-01T00:36:47.827Z,97.30
2019-06-01T00:41:52.404Z,97.40
2019-06-01T00:46:54.423Z,97.40
2019-06-01T00:51:55.760Z,97.30
2019-06-01T00:56:57.015Z,97.60
2019-06-01T01:02:00.246Z,97.60
2019-06-01T01:07:01.905Z,97.70
2019-06-01T01:12:03.397Z,97.80
2019-06-01T01:17:04.808Z,98.00
2019-06-01T01:22:06.206Z,98.00
2019-06-01T01:27:07.611Z,98.10
2019-06-01T01:32:09.087Z,98.10
2019-06-01T01:37:11.001Z,98.20
2019-06-01T01:42:12.378Z,98.30
2019-06-01T01:47:14.443Z,98.20
2019-06-01T01:52:16.947Z,98.30
2019-06-01T01:57:18.225Z,98.40
2019-06-01T02:02:19.488Z,98.40
2019-06-01T02:07:20.779Z,98.30
2019-06-01T02:12:22.061Z,98.30
2019-06-01T02:17:23.420Z,98.40
2019-06-01T02:22:24.759Z,98.40
2019-06-01T02:27:26.122Z,98.50
2019-06-01T02:32:27.455Z,98.60
2019-06-01T02:37:28.751Z,98.70
2019-06-01T02:42:30.038Z,99.10
2019-06-01T02:47:31.661Z,98.70
2019-06-01T02:52:33.028Z,98.80
2019-06-01T02:57:34.424Z,98.90
2019-06-01T03:02:36.466Z,98.90
2019-06-01T03:07:41.239Z,98.90
2019-06-01T03:12:44.033Z,98.90
2019-06-01T03:17:49.961Z,98.90
2019-06-01T03:22:51.788Z,99.00
2019-06-01T03:27:56.940Z,99.10
2019-06-01T03:32:58.326Z,99.10
2019-06-01T03:38:00.838Z,99.20
2019-06-01T03:43:04.412Z,99.30
2019-06-01T03:48:08.703Z,99.30
2019-06-01T03:53:12.388Z,99.40
2019-06-01T03:58:13.900Z,99.60
2019-06-01T04:03:15.393Z,99.60
2019-06-01T04:08:17.488Z,99.70
2019-06-01T04:13:19.126Z,99.80
2019-06-01T04:18:21.103Z,99.90
2019-06-01T04:23:24.361Z,99.90
2019-06-01T04:28:25.611Z,99.90
2019-06-01T04:33:26.942Z,99.90
2019-06-01T04:38:28.609Z,99.90
2019-06-01T04:43:30.322Z,99.90
2019-06-01T04:48:32.042Z,99.90
2019-06-01T04:53:33.434Z,99.90
2019-06-01T04:58:34.966Z,99.90
2019-06-01T05:03:37.015Z,99.90
2019-06-01T05:08:38.277Z,99.90
2019-06-01T05:13:41.488Z,99.90
2019-06-01T05:18:43.110Z,99.90
2019-06-01T05:23:44.371Z,99.90
2019-06-01T05:28:46.107Z,99.90
2019-06-01T05:33:47.441Z,99.90
2019-06-01T05:38:50.750Z,99.90
2019-06-01T05:43:52.153Z,99.90
2019-06-01T05:48:53.508Z,99.90
2019-06-01T05:53:55.353Z,99.80
2019-06-01T05:58:56.811Z,99.40
2019-06-01T06:04:01.488Z,99.00
2019-06-01T06:09:07.084Z,98.70
2019-06-01T06:14:08.605Z,98.30
2019-06-01T06:19:10.294Z,98.00
2019-06-01T06:24:12.196Z,97.70
2019-06-01T06:29:14.666Z,97.50
2019-06-01T06:34:17.457Z,97.20
2019-06-01T06:39:19.936Z,96.90
2019-06-01T06:44:22.588Z,96.50
2019-06-01T06:49:25.323Z,96.30
2019-06-01T06:54:26.765Z,96.10
2019-06-01T06:59:28.226Z,95.80
2019-06-01T07:04:29.547Z,95.20
2019-06-01T07:09:35.437Z,95.10
2019-06-01T07:14:36.848Z,94.70
2019-06-01T07:19:38.237Z,94.10
2019-06-01T07:24:39.537Z,93.10
2019-06-01T07:29:40.829Z,92.30
2019-06-01T07:34:43.028Z,92.00
2019-06-01T07:39:44.720Z,91.90
2019-06-01T07:44:46.077Z,91.40
2019-06-01T07:49:47.602Z,91.30
2019-06-01T07:54:48.898Z,90.60
2019-06-01T07:59:50.675Z,90.10
2019-06-01T08:04:54.360Z,89.60
2019-06-01T08:09:55.180Z,89.00
2019-06-01T08:14:56.473Z,88.80
2019-06-01T08:19:57.808Z,87.50
2019-06-01T08:24:59.055Z,86.60
2019-06-01T08:30:00.401Z,84.30
2019-06-01T08:35:08.752Z,84.00
2019-06-01T08:40:06.799Z,82.80
2019-06-01T08:45:08.780Z,82.20
2019-06-01T08:50:11.017Z,81.20
2019-06-01T08:55:12.683Z,80.30
2019-06-01T09:00:14.985Z,79.30
2019-06-01T09:05:24.364Z,78.50
2019-06-01T09:10:19.648Z,78.00
2019-06-01T09:15:21.018Z,77.10
2019-06-01T09:20:22.328Z,76.00
2019-06-01T09:25:23.726Z,76.30
2019-06-01T09:30:27.950Z,75.10
2019-06-01T09:35:47.746Z,74.00
2019-06-01T09:40:33.504Z,73.80
2019-06-01T09:45:36.292Z,73.00
2019-06-01T09:50:39.706Z,73.00
2019-06-01T09:55:44.098Z,72.50
2019-06-01T10:00:49.278Z,72.00
2019-06-01T10:06:01.320Z,71.30
2019-06-01T10:10:54.290Z,69.60
2019-06-01T10:15:55.560Z,69.80
2019-06-01T10:20:56.874Z,69.00
2019-06-01T10:25:58.141Z,68.50
2019-06-01T10:30:59.410Z,68.50
2019-06-01T10:36:18.643Z,68.80
2019-06-01T10:41:04.545Z,68.10
2019-06-01T10:46:05.853Z,68.40
2019-06-01T10:51:07.137Z,67.00
2019-06-01T10:56:08.415Z,66.50
2019-06-01T11:01:09.843Z,65.80
2019-06-01T11:06:12.396Z,66.10
2019-06-01T11:11:13.740Z,67.10
2019-06-01T11:16:15.060Z,66.80
2019-06-01T11:21:16.341Z,66.80
2019-06-01T11:26:17.621Z,66.50
2019-06-01T11:31:18.910Z,66.10
2019-06-01T11:36:20.235Z,67.00
2019-06-01T11:41:21.709Z,66.40
2019-06-01T11:46:24.930Z,64.90
2019-06-01T11:51:26.237Z,65.00
2019-06-01T11:56:27.481Z,65.20
2019-06-01T12:01:28.783Z,65.00
2019-06-01T12:12:08.235Z,64.10
2019-06-01T12:17:09.570Z,62.70
2019-06-01T12:22:10.880Z,63.30
2019-06-01T12:27:12.191Z,62.90
2019-06-01T12:32:15.370Z,61.80
2019-06-01T12:37:36.106Z,61.50
2019-06-01T12:42:21.895Z,62.40
2019-06-01T12:47:23.203Z,61.00
2019-06-01T12:52:24.833Z,59.70
2019-06-01T12:57:26.421Z,59.60
2019-06-01T13:02:27.878Z,59.60
2019-06-01T13:07:29.210Z,59.30
2019-06-01T13:12:30.639Z,59.30
2019-06-01T13:17:32.277Z,59.50
2019-06-01T13:22:34.133Z,59.60
2019-06-01T13:27:35.913Z,59.70
2019-06-01T13:32:37.321Z,59.10
2019-06-01T13:37:39.331Z,58.70
2019-06-01T13:42:42.951Z,58.20
2019-06-01T13:47:45.386Z,58.40
2019-06-01T13:52:48.194Z,58.60
2019-06-01T13:57:50.438Z,58.40
2019-06-01T14:02:55.877Z,58.70
2019-06-01T14:07:59.592Z,57.30
2019-06-01T14:13:05.177Z,57.70
2019-06-01T14:18:07.824Z,57.40
2019-06-01T14:23:12.325Z,57.50
2019-06-01T14:28:13.616Z,57.70
2019-06-01T14:33:17.220Z,57.60
2019-06-01T14:38:18.511Z,57.90
2019-06-01T14:43:19.816Z,57.70
2019-06-01T14:48:23.150Z,57.50
2019-06-01T14:53:27.731Z,57.80
2019-06-01T14:58:29.046Z,57.80
2019-06-01T15:03:30.361Z,57.80
2019-06-01T15:08:31.630Z,57.70
2019-06-01T15:13:32.947Z,58.10
2019-06-01T15:18:34.548Z,58.30
2019-06-01T15:23:35.845Z,58.70
2019-06-01T15:28:37.304Z,58.20
2019-06-01T15:33:38.563Z,57.30
2019-06-01T15:38:40.115Z,57.10
2019-06-01T15:43:41.614Z,57.70
2019-06-01T15:48:46.759Z,57.10
2019-06-01T15:53:48.234Z,57.00
2019-06-01T15:58:53.601Z,56.90
2019-06-01T16:03:53.225Z,57.00
2019-06-01T16:08:55.247Z,56.80
2019-06-01T16:13:57.652Z,57.10
2019-06-01T16:19:04.063Z,57.00
2019-06-01T16:24:05.022Z,57.90
2019-06-01T16:29:12.133Z,58.60
2019-06-01T16:39:35.000Z,58.90
2019-06-01T16:44:38.578Z,59.30
2019-06-01T16:49:42.600Z,59.40
2019-06-01T16:54:46.832Z,59.70
2019-06-01T16:59:48.537Z,60.20
2019-06-01T17:04:51.693Z,60.60
2019-06-01T17:09:56.649Z,61.70
2019-06-01T17:14:58.887Z,61.20
2019-06-01T17:20:01.155Z,61.50
2019-06-01T17:25:05.854Z,61.80
2019-06-01T17:30:12.137Z,62.20
2019-06-01T17:35:13.854Z,62.50
2019-06-01T17:40:18.218Z,62.70
2019-06-01T17:45:21.630Z,63.40
2019-06-01T17:50:23.418Z,64.30
2019-06-01T17:55:30.555Z,65.00
2019-06-01T18:00:32.129Z,65.60
2019-06-01T18:05:34.856Z,66.20
2019-06-01T18:10:52.720Z,66.30
2019-06-01T18:15:42.060Z,66.60
2019-06-01T18:20:43.568Z,67.40
2019-06-01T18:25:45.173Z,68.00
2019-06-01T18:30:49.185Z,68.20
2019-06-01T18:35:50.771Z,68.40
2019-06-01T18:41:06.496Z,68.70
2019-06-01T18:46:08.274Z,69.10
2019-06-01T18:51:10.223Z,69.60
2019-06-01T18:56:12.414Z,69.70
2019-06-01T19:01:14.794Z,69.70
2019-06-01T19:06:16.201Z,70.30
2019-06-01T19:11:34.748Z,70.50
2019-06-01T19:16:33.686Z,71.10
2019-06-01T19:21:35.633Z,71.70
2019-06-01T19:26:37.880Z,72.40
2019-06-01T19:31:39.726Z,73.80
2019-06-01T19:36:44.030Z,73.70
2019-06-01T19:41:46.039Z,74.30
2019-06-01T19:46:47.398Z,75.00
2019-06-01T19:51:48.669Z,75.60
2019-06-01T19:56:50.186Z,76.40
2019-06-01T20:01:51.463Z,77.10
2019-06-01T20:06:52.846Z,78.00
2019-06-01T20:12:02.015Z,78.50
2019-06-01T20:16:57.519Z,79.40
2019-06-01T20:22:17.312Z,80.00
2019-06-01T20:27:19.537Z,80.50
2019-06-01T20:32:22.184Z,81.10
2019-06-01T20:37:24.239Z,81.80
2019-06-01T20:42:31.733Z,82.30
2019-06-01T20:47:29.747Z,82.90
2019-06-01T20:52:31.270Z,83.50
2019-06-01T20:57:32.597Z,84.00
2019-06-01T21:02:33.884Z,84.50
2019-06-01T21:07:37.220Z,84.70
2019-06-01T21:12:46.265Z,85.20
2019-06-01T21:17:42.173Z,85.60
2019-06-01T21:22:43.841Z,86.00
2019-06-01T21:27:45.900Z,86.60
2019-06-01T21:32:47.275Z,87.40
2019-06-01T21:37:48.870Z,87.60
2019-06-01T21:43:02.772Z,88.10
2019-06-01T21:47:53.737Z,88.50
2019-06-01T21:52:55.060Z,88.60
2019-06-01T21:57:56.327Z,89.00
2019-06-01T22:02:57.678Z,89.80
2019-06-01T22:08:00.871Z,90.10
2019-06-01T22:13:17.517Z,90.40
2019-06-01T22:18:05.881Z,90.50
2019-06-01T22:23:11.480Z,90.80
2019-06-01T22:28:11.153Z,91.10
2019-06-01T22:33:12.481Z,91.30
2019-06-01T22:38:13.809Z,91.70
2019-06-01T22:43:15.096Z,91.80
2019-06-01T22:48:20.437Z,91.90
2019-06-01T22:53:22.495Z,92.20
2019-06-01T22:58:27.396Z,92.50
2019-06-01T23:03:30.404Z,92.60
2019-06-01T23:08:31.982Z,92.80
2019-06-01T23:13:34.113Z,93.00
2019-06-01T23:18:35.377Z,93.20
2019-06-01T23:23:36.675Z,93.40
2019-06-01T23:28:38.881Z,93.40
2019-06-01T23:33:41.653Z,93.60
2019-06-01T23:38:42.896Z,93.70
2019-06-01T23:43:45.682Z,93.80
2019-06-01T23:48:46.962Z,93.90
2019-06-01T23:53:48.331Z,93.90
2019-06-01T23:58:49.651Z,93.70
